Time;durP1;ratioP1;P1;durP2;ratioP2;P2;SDS_P1;SDS_P2;PMS_P1;PMS_P2;Temp;Humidity;BMP_temperature;BMP_pressure;BME280_temperature;BME280_humidity;BME280_pressure;Samples;Min_cycle;Max_cycle;Signal;HPM_P1;HPM_P2
2021/07/22 00:01:19;;;;;;;7.23;6.53;;;20.70;99.90;;;;;;6126519;23;20622;-68
2021/07/22 00:03:44;;;;;;;6.70;6.10;;;20.60;99.90;;;;;;6126557;23;20531;-66
2021/07/22 00:06:10;;;;;;;6.77;6.07;;;20.60;99.90;;;;;;6126677;23;20193;-66
2021/07/22 00:08:35;;;;;;;7.23;6.53;;;20.50;99.90;;;;;;6126700;23;20156;-66
2021/07/22 00:11:01;;;;;;;7.83;6.53;;;20.50;99.90;;;;;;6126453;23;20166;-66
2021/07/22 00:13:26;;;;;;;8.40;7.07;;;20.50;99.90;;;;;;6125030;23;20236;-68
2021/07/22 00:15:52;;;;;;;9.27;6.97;;;20.40;99.90;;;;;;6126509;23;20155;-65
2021/07/22 00:18:17;;;;;;;8.67;6.53;;;20.40;99.90;;;;;;6126406;23;20563;-65
2021/07/22 00:20:43;;;;;;;8.20;6.83;;;20.40;99.90;;;;;;6126590;23;20166;-68
2021/07/22 00:23:11;;;;;;;7.30;6.60;;;20.40;99.90;;;;;;6126982;23;20518;-68
2021/07/22 00:25:36;;;;;;;7.43;6.70;;;20.30;99.90;;;;;;6125061;23;20189;-66
2021/07/22 00:28:02;;;;;;;8.07;7.30;;;20.30;99.90;;;;;;6126900;23;20408;-66
2021/07/22 00:30:27;;;;;;;8.60;6.53;;;20.30;99.90;;;;;;6126499;23;20182;-65
2021/07/22 00:32:57;;;;;;;7.37;6.60;;;20.30;99.90;;;;;;6126811;23;20688;-65
2021/07/22 00:35:23;;;;;;;8.20;7.03;;;20.20;99.90;;;;;;6126383;23;20206;-66
2021/07/22 00:37:48;;;;;;;7.63;6.93;;;20.20;99.90;;;;;;6127014;23;20404;-68
2021/07/22 00:40:14;;;;;;;7.97;6.80;;;20.20;99.90;;;;;;6126521;23;20373;-67
2021/07/22 00:43:00;;;;;;;7.60;6.93;;;20.20;99.90;;;;;;6125003;23;20201;-65
2021/07/22 00:45:27;;;;;;;7.17;6.47;;;20.20;99.90;;;;;;6126534;23;20166;-65
2021/07/22 00:47:53;;;;;;;7.60;6.90;;;20.20;99.90;;;;;;6126783;23;20448;-65
2021/07/22 00:50:18;;;;;;;8.07;7.27;;;20.20;99.90;;;;;;6128221;23;20380;-67
2021/07/22 00:52:44;;;;;;;7.87;6.90;;;20.20;99.90;;;;;;6126801;23;20553;-66
2021/07/22 00:55:12;;;;;;;7.80;6.93;;;20.20;99.90;;;;;;6126609;23;20254;-66
2021/07/22 00:57:37;;;;;;;7.37;6.67;;;20.20;99.90;;;;;;6128560;23;20206;-65
2021/07/22 01:00:04;;;;;;;8.53;7.63;;;20.10;99.90;;;;;;6128171;23;20373;-68
2021/07/22 01:02:29;;;;;;;8.43;7.63;;;20.10;99.90;;;;;;6126696;23;20566;-66
2021/07/22 01:04:55;;;;;;;9.27;8.37;;;20.10;99.90;;;;;;6128127;23;20377;-68
2021/07/22 01:07:20;;;;;;;8.67;7.87;;;20.10;99.90;;;;;;6128353;23;20245;-68
2021/07/22 01:09:49;;;;;;;8.30;7.50;;;20.10;99.90;;;;;;6126521;23;20242;-66
2021/07/22 01:12:14;;;;;;;8.87;8.00;;;20.00;99.90;;;;;;6128215;23;20238;-66
2021/07/22 01:14:43;;;;;;;8.40;7.20;;;20.00;99.90;;;;;;6127990;23;20378;-68
2021/07/22 01:17:19;;;;;;;8.90;7.93;;;20.00;99.90;;;;;;6126363;23;20193;-67
2021/07/22 01:19:45;;;;;;;7.27;6.57;;;19.90;99.90;;;;;;6128120;23;20369;-66
2021/07/22 01:22:10;;;;;;;8.20;7.30;;;19.90;99.90;;;;;;6127971;23;20472;-68
2021/07/22 01:24:36;;;;;;;9.30;6.87;;;19.90;99.90;;;;;;6128017;23;20186;-66
2021/07/22 01:27:01;;;;;;;8.27;6.77;;;19.80;99.90;;;;;;6127948;23;20203;-66
2021/07/22 01:29:27;;;;;;;7.87;6.97;;;19.80;99.90;;;;;;6127922;23;20168;-68
2021/07/22 01:31:52;;;;;;;8.10;7.30;;;19.80;99.90;;;;;;6126134;23;20192;-68
2021/07/22 01:34:18;;;;;;;8.47;7.40;;;19.80;99.90;;;;;;6128121;23;20203;-67
2021/07/22 01:36:44;;;;;;;7.47;6.77;;;19.70;99.90;;;;;;6128046;23;20186;-67
2021/07/22 01:39:09;;;;;;;8.63;7.73;;;19.70;99.90;;;;;;6127708;23;20166;-67
2021/07/22 01:41:37;;;;;;;8.63;7.73;;;19.70;99.90;;;;;;6126044;23;20182;-65
2021/07/22 01:44:03;;;;;;;9.07;7.33;;;19.60;99.90;;;;;;6127736;23;20170;-66
2021/07/22 01:46:29;;;;;;;10.13;7.97;;;19.60;99.90;;;;;;6127759;23;20416;-67
2021/07/22 01:48:54;;;;;;;10.37;8.57;;;19.50;99.90;;;;;;6127760;23;20642;-68
2021/07/22 01:51:20;;;;;;;11.83;8.13;;;19.50;99.90;;;;;;6127638;23;20171;-67
2021/07/22 01:53:45;;;;;;;7.57;6.97;;;19.40;99.90;;;;;;6126087;23;20659;-67
2021/07/22 01:56:11;;;;;;;8.30;7.50;;;19.40;99.90;;;;;;6127464;23;20632;-65
2021/07/22 01:58:36;;;;;;;8.73;7.53;;;19.40;99.90;;;;;;6127748;23;20161;-68
2021/07/22 02:01:02;;;;;;;7.93;7.13;;;19.30;99.90;;;;;;6127007;23;20155;-65
2021/07/22 02:03:28;;;;;;;9.13;7.33;;;19.30;99.90;;;;;;6127589;23;20632;-67
2021/07/22 02:05:53;;;;;;;8.30;7.50;;;19.30;99.90;;;;;;6127469;23;20213;-67
2021/07/22 02:08:19;;;;;;;8.50;7.57;;;19.30;99.90;;;;;;6127966;23;20207;-66
2021/07/22 02:10:44;;;;;;;9.30;7.30;;;19.30;99.90;;;;;;6127598;23;20238;-68
2021/07/22 02:13:10;;;;;;;8.03;7.17;;;19.30;99.90;;;;;;6127928;23;20186;-65
2021/07/22 02:15:38;;;;;;;7.70;7.00;;;19.30;99.90;;;;;;6127494;23;20162;-66
2021/07/22 02:18:03;;;;;;;8.70;7.90;;;19.30;99.90;;;;;;6126077;23;20254;-66
2021/07/22 02:20:29;;;;;;;9.27;7.93;;;19.30;99.90;;;;;;6127374;23;20382;-68
2021/07/22 02:22:54;;;;;;;8.20;6.67;;;19.30;99.90;;;;;;6125749;23;20198;-67
2021/07/22 02:25:20;;;;;;;8.10;7.40;;;19.30;99.90;;;;;;6125690;23;20174;-67
2021/07/22 02:27:45;;;;;;;9.13;7.80;;;19.20;99.90;;;;;;6127850;23;20213;-67
2021/07/22 02:30:11;;;;;;;11.17;7.83;;;19.30;99.90;;;;;;6125718;23;20169;-66
2021/07/22 02:32:37;;;;;;;7.80;7.10;;;19.20;99.90;;;;;;6127613;23;20177;-68
2021/07/22 02:35:03;;;;;;;9.03;7.30;;;19.20;99.90;;;;;;6127074;23;20442;-68
2021/07/22 02:37:29;;;;;;;9.23;8.33;;;19.20;99.90;;;;;;6127765;23;20181;-66
2021/07/22 02:39:55;;;;;;;8.90;7.93;;;19.20;99.90;;;;;;6127317;23;20377;-65
2021/07/22 02:42:20;;;;;;;9.23;8.27;;;19.20;99.90;;;;;;6127249;23;20197;-68
2021/07/22 02:44:46;;;;;;;8.47;7.47;;;19.20;99.90;;;;;;6125582;23;20162;-66
2021/07/22 02:47:12;;;;;;;7.57;6.87;;;19.20;99.90;;;;;;6127370;23;20181;-66
2021/07/22 02:49:38;;;;;;;10.97;8.43;;;19.20;99.90;;;;;;6127306;23;20235;-67
2021/07/22 02:52:05;;;;;;;8.20;7.40;;;19.30;99.90;;;;;;6127324;23;20202;-66
2021/07/22 02:54:31;;;;;;;7.77;7.07;;;19.30;99.90;;;;;;6125591;23;20419;-65
2021/07/22 02:56:56;;;;;;;7.93;7.13;;;19.30;99.90;;;;;;6127080;23;20415;-65
2021/07/22 02:59:22;;;;;;;10.43;8.57;;;19.30;99.90;;;;;;6127051;23;20160;-68
2021/07/22 03:01:47;;;;;;;9.10;7.60;;;19.40;99.90;;;;;;6126911;23;20179;-66
2021/07/22 03:04:13;;;;;;;8.43;7.37;;;19.30;99.90;;;;;;6125408;23;20207;-66
2021/07/22 03:06:39;;;;;;;8.87;7.97;;;19.40;99.90;;;;;;6127111;23;20212;-68
2021/07/22 03:09:05;;;;;;;8.83;7.93;;;19.40;99.90;;;;;;6126910;23;20205;-68
2021/07/22 03:11:31;;;;;;;7.63;6.70;;;19.40;99.90;;;;;;6126975;23;20783;-66
2021/07/22 03:13:58;;;;;;;8.47;7.57;;;19.40;99.90;;;;;;6125337;23;20170;-66
2021/07/22 03:16:24;;;;;;;8.20;7.40;;;19.40;99.90;;;;;;6125270;23;20188;-66
2021/07/22 03:18:49;;;;;;;7.93;7.17;;;19.50;99.90;;;;;;6125328;23;20470;-67
2021/07/22 03:21:15;;;;;;;8.93;8.03;;;19.50;99.90;;;;;;6126733;23;20201;-68
2021/07/22 03:23:41;;;;;;;8.20;7.37;;;19.50;99.90;;;;;;6126836;23;20527;-67
2021/07/22 03:26:06;;;;;;;9.23;7.77;;;19.50;99.90;;;;;;6126615;23;20656;-68
2021/07/22 03:28:32;;;;;;;7.70;7.00;;;19.50;99.90;;;;;;6125241;23;20209;-66
2021/07/22 03:30:57;;;;;;;8.20;7.40;;;19.50;99.90;;;;;;6126682;23;20490;-65
2021/07/22 03:33:23;;;;;;;9.40;7.73;;;19.50;99.90;;;;;;6126347;23;20161;-68
2021/07/22 03:35:48;;;;;;;8.03;7.30;;;19.50;99.90;;;;;;6125354;23;20187;-68
2021/07/22 03:38:14;;;;;;;11.47;8.63;;;19.50;99.90;;;;;;6127196;23;20180;-68
2021/07/22 03:40:40;;;;;;;12.27;8.93;;;19.50;99.90;;;;;;6126812;23;20201;-68
2021/07/22 03:43:05;;;;;;;11.90;10.30;;;19.50;99.90;;;;;;6125172;23;20211;-66
2021/07/22 03:45:31;;;;;;;15.00;9.13;;;19.50;99.90;;;;;;6126811;23;20158;-65
2021/07/22 03:48:00;;;;;;;10.33;9.00;;;19.50;99.90;;;;;;6127124;23;20226;-66
2021/07/22 03:50:26;;;;;;;10.83;9.73;;;19.50;99.90;;;;;;6126775;23;20165;-68
2021/07/22 03:52:56;;;;;;;10.50;8.97;;;19.50;99.90;;;;;;6127086;23;20423;-66
2021/07/22 03:55:23;;;;;;;10.17;9.10;;;19.50;99.90;;;;;;6126770;23;20376;-67
2021/07/22 03:57:49;;;;;;;12.70;9.20;;;19.50;99.90;;;;;;6125259;23;20496;-66
2021/07/22 04:00:15;;;;;;;11.00;9.80;;;19.50;99.90;;;;;;6126047;23;20383;-66
2021/07/22 04:02:40;;;;;;;13.90;10.13;;;19.50;99.90;;;;;;6124920;23;20198;-68
2021/07/22 04:05:06;;;;;;;14.73;10.53;;;19.50;99.90;;;;;;6125109;23;20731;-68
2021/07/22 04:07:32;;;;;;;10.30;9.30;;;19.50;99.90;;;;;;6126104;23;20178;-68
2021/07/22 04:09:57;;;;;;;11.27;9.20;;;19.50;99.90;;;;;;6124831;23;20424;-68
2021/07/22 04:12:23;;;;;;;16.77;9.50;;;19.50;99.90;;;;;;6126755;23;20174;-66
2021/07/22 04:14:48;;;;;;;13.27;10.33;;;19.50;99.90;;;;;;6126736;23;20611;-67
2021/07/22 04:17:17;;;;;;;16.97;9.60;;;19.60;99.90;;;;;;6125047;23;20187;-66
2021/07/22 04:19:42;;;;;;;12.33;10.00;;;19.60;99.90;;;;;;6126668;23;20538;-68
2021/07/22 04:22:08;;;;;;;13.70;10.30;;;19.60;99.90;;;;;;6126760;23;20439;-68
2021/07/22 04:24:34;;;;;;;11.47;10.37;;;19.60;99.90;;;;;;6128054;23;20154;-67
2021/07/22 04:27:00;;;;;;;12.20;10.30;;;19.70;99.90;;;;;;6128614;23;20229;-66
2021/07/22 04:29:25;;;;;;;11.10;9.93;;;19.70;99.90;;;;;;6128537;23;20166;-68
2021/07/22 04:31:51;;;;;;;10.90;9.07;;;19.70;99.90;;;;;;6126873;23;20273;-68
2021/07/22 04:34:16;;;;;;;13.93;10.90;;;19.70;99.90;;;;;;6128220;23;20286;-66
2021/07/22 04:36:42;;;;;;;11.17;9.80;;;19.80;99.90;;;;;;6128419;23;20182;-66
2021/07/22 04:39:07;;;;;;;15.80;10.80;;;19.80;99.90;;;;;;6128248;23;20158;-68
2021/07/22 04:41:33;;;;;;;14.30;9.50;;;19.80;99.90;;;;;;6126536;23;20181;-68
2021/07/22 04:43:58;;;;;;;10.60;9.57;;;19.80;99.90;;;;;;6128161;23;20227;-68
2021/07/22 04:46:24;;;;;;;14.87;10.90;;;19.80;99.90;;;;;;6128195;23;20182;-66
2021/07/22 04:48:49;;;;;;;13.60;10.57;;;19.90;99.90;;;;;;6128205;23;20158;-68
2021/07/22 04:51:15;;;;;;;12.00;10.80;;;19.90;99.90;;;;;;6128105;23;20175;-66
2021/07/22 04:53:41;;;;;;;12.23;10.80;;;20.00;99.90;;;;;;6128248;23;20161;-68
2021/07/22 04:56:07;;;;;;;10.67;9.57;;;20.00;99.90;;;;;;6128010;23;20167;-66
2021/07/22 04:58:33;;;;;;;15.30;12.53;;;20.10;99.90;;;;;;6126627;23;20604;-68
2021/07/22 05:00:58;;;;;;;19.47;17.13;;;20.10;99.90;;;;;;6127802;23;20413;-66
2021/07/22 05:03:24;;;;;;;19.10;13.20;;;20.10;99.90;;;;;;6128243;23;20191;-68
2021/07/22 05:05:49;;;;;;;13.20;10.83;;;20.20;99.90;;;;;;6128108;23;20581;-65
2021/07/22 05:08:15;;;;;;;12.93;11.63;;;20.30;99.90;;;;;;6128642;23;20621;-68
2021/07/22 05:10:40;;;;;;;14.57;10.43;;;20.30;99.90;;;;;;6125894;23;20166;-66
2021/07/22 05:13:06;;;;;;;14.70;9.63;;;20.40;99.90;;;;;;6124702;23;20175;-69
2021/07/22 05:15:32;;;;;;;11.67;9.57;;;20.40;99.90;;;;;;6125230;23;20612;-66
2021/07/22 05:17:58;;;;;;;11.73;10.47;;;20.50;99.90;;;;;;6123960;23;20419;-66
2021/07/22 05:20:24;;;;;;;10.93;9.60;;;20.60;99.90;;;;;;6125368;23;20152;-65
2021/07/22 05:22:49;;;;;;;13.57;9.67;;;20.70;99.90;;;;;;6124790;23;20505;-66
2021/07/22 05:25:15;;;;;;;10.50;9.40;;;20.70;99.90;;;;;;6123391;23;20401;-66
2021/07/22 05:27:40;;;;;;;13.40;8.73;;;20.80;99.90;;;;;;6124169;23;20178;-66
2021/07/22 05:30:06;;;;;;;15.53;11.27;;;20.90;99.90;;;;;;6125065;23;20171;-66
2021/07/22 05:32:33;;;;;;;11.80;9.63;;;20.90;99.90;;;;;;6127923;23;20194;-68
2021/07/22 05:34:59;;;;;;;12.27;9.77;;;21.00;99.90;;;;;;6127029;23;20417;-66
2021/07/22 05:37:24;;;;;;;10.87;9.23;;;21.10;99.90;;;;;;6128097;23;20469;-66
2021/07/22 05:39:50;;;;;;;11.03;9.73;;;21.20;99.90;;;;;;6127881;23;20159;-68
2021/07/22 05:42:15;;;;;;;10.33;9.10;;;21.30;99.90;;;;;;6127795;23;20194;-68
2021/07/22 05:44:42;;;;;;;10.07;8.73;;;21.30;99.90;;;;;;6127862;23;20184;-68
2021/07/22 05:47:08;;;;;;;9.67;8.47;;;21.40;99.90;;;;;;6127477;23;20176;-68
2021/07/22 05:49:33;;;;;;;12.10;9.73;;;21.40;99.90;;;;;;6125329;23;20384;-67
2021/07/22 05:52:00;;;;;;;14.70;10.03;;;21.50;99.90;;;;;;6125114;23;20630;-68
2021/07/22 05:54:26;;;;;;;11.63;10.43;;;21.60;99.90;;;;;;6123835;23;20495;-66
2021/07/22 05:56:51;;;;;;;10.70;9.37;;;21.60;99.90;;;;;;6123346;23;20422;-66
2021/07/22 05:59:17;;;;;;;11.93;10.23;;;21.70;99.90;;;;;;6124437;23;20238;-65
2021/07/22 06:01:43;;;;;;;10.97;9.70;;;21.80;99.90;;;;;;6122077;23;20441;-66
2021/07/22 06:04:08;;;;;;;11.10;9.67;;;21.90;99.90;;;;;;6122672;23;20195;-67
2021/07/22 06:06:35;;;;;;;11.77;10.57;;;22.00;99.90;;;;;;6122198;23;20876;-67
2021/07/22 06:09:01;;;;;;;10.03;9.03;;;22.00;99.90;;;;;;6124184;23;20174;-66
2021/07/22 06:11:27;;;;;;;10.67;9.13;;;22.10;99.90;;;;;;6123003;23;20465;-67
2021/07/22 06:13:53;;;;;;;10.13;8.60;;;22.20;99.90;;;;;;6121065;23;20858;-66
2021/07/22 06:16:18;;;;;;;14.63;9.87;;;22.20;99.90;;;;;;6121908;23;20425;-66
2021/07/22 06:18:44;;;;;;;9.60;8.60;;;22.30;99.90;;;;;;6123792;23;20156;-68
2021/07/22 06:21:15;;;;;;;10.27;8.70;;;22.40;99.90;;;;;;6126773;23;20595;-66
2021/07/22 06:23:41;;;;;;;9.13;8.13;;;22.50;99.90;;;;;;6127228;23;20187;-68
2021/07/22 06:26:07;;;;;;;10.50;9.50;;;22.50;99.90;;;;;;6124857;23;20385;-66
2021/07/22 06:28:32;;;;;;;10.20;9.10;;;22.60;99.90;;;;;;6125846;23;20394;-68
2021/07/22 06:30:58;;;;;;;8.80;7.90;;;22.70;99.90;;;;;;6124854;23;20183;-68
2021/07/22 06:33:24;;;;;;;9.43;8.03;;;22.70;99.90;;;;;;6120725;23;20218;-66
2021/07/22 06:35:50;;;;;;;7.77;7.07;;;22.80;99.90;;;;;;6123350;23;20141;-66
2021/07/22 06:38:16;;;;;;;8.50;7.50;;;22.90;99.90;;;;;;6123358;23;20184;-66
2021/07/22 06:40:43;;;;;;;8.70;7.90;;;23.00;99.90;;;;;;6124588;23;20445;-68
2021/07/22 06:43:09;;;;;;;8.97;7.50;;;23.00;99.90;;;;;;6124099;23;20761;-68
2021/07/22 06:45:35;;;;;;;7.70;6.90;;;23.10;99.90;;;;;;6122883;23;20153;-66
2021/07/22 06:48:04;;;;;;;9.23;7.60;;;23.20;99.90;;;;;;6123387;23;20932;-66
2021/07/22 06:50:30;;;;;;;7.70;5.13;;;23.30;99.90;;;;;;6122118;23;20450;-66
2021/07/22 06:52:56;;;;;;;6.03;5.53;;;23.40;99.90;;;;;;6125427;23;20420;-66
2021/07/22 06:55:22;;;;;;;7.20;5.93;;;23.50;99.90;;;;;;6124069;23;20822;-68
2021/07/22 06:57:50;;;;;;;6.80;5.60;;;23.60;99.90;;;;;;6122362;23;20177;-66
2021/07/22 07:00:16;;;;;;;5.77;5.27;;;23.60;99.90;;;;;;6146175;23;20157;-68
2021/07/22 07:02:42;;;;;;;6.60;5.90;;;23.70;99.90;;;;;;6119458;23;20784;-69
2021/07/22 07:05:08;;;;;;;6.57;5.97;;;23.80;99.90;;;;;;6120215;23;20408;-68
2021/07/22 07:07:34;;;;;;;6.13;5.50;;;23.80;99.90;;;;;;6119688;23;20260;-66
2021/07/22 07:10:00;;;;;;;6.93;6.20;;;23.90;99.90;;;;;;6118374;23;20428;-69
2021/07/22 07:12:25;;;;;;;6.40;5.80;;;24.00;99.90;;;;;;6114737;23;20265;-68
2021/07/22 07:14:51;;;;;;;6.43;5.93;;;24.10;99.90;;;;;;6121924;23;20233;-66
2021/07/22 07:17:17;;;;;;;6.80;6.10;;;24.20;99.90;;;;;;6123550;23;20183;-69
2021/07/22 07:19:43;;;;;;;7.20;6.13;;;24.30;99.90;;;;;;6123313;23;20166;-67
2021/07/22 07:22:08;;;;;;;8.50;6.10;;;24.30;99.90;;;;;;6124513;23;20425;-68
2021/07/22 07:24:34;;;;;;;8.60;6.10;;;24.40;99.90;;;;;;6120837;23;20616;-68
2021/07/22 07:27:00;;;;;;;6.57;5.97;;;24.50;99.90;;;;;;6118110;23;20261;-67
2021/07/22 07:29:25;;;;;;;7.20;5.83;;;24.60;99.90;;;;;;6122762;23;20585;-68
2021/07/22 07:31:51;;;;;;;6.97;6.37;;;24.60;99.90;;;;;;6124020;23;20206;-66
2021/07/22 07:34:17;;;;;;;6.83;6.13;;;24.70;99.90;;;;;;6123507;23;20580;-66
2021/07/22 07:36:45;;;;;;;7.37;6.00;;;24.70;99.90;;;;;;6119751;23;20190;-66
2021/07/22 07:39:13;;;;;;;6.20;5.60;;;24.80;99.90;;;;;;6121444;23;20168;-66
2021/07/22 07:41:38;;;;;;;6.63;5.97;;;24.90;99.90;;;;;;6144762;23;20468;-68
2021/07/22 07:44:04;;;;;;;6.73;6.03;;;24.90;99.90;;;;;;6119823;23;20434;-66
2021/07/22 07:46:29;;;;;;;6.97;6.27;;;25.00;99.90;;;;;;6122707;23;20564;-66
2021/07/22 07:48:55;;;;;;;7.17;5.90;;;25.00;99.90;;;;;;6122416;23;20163;-69
2021/07/22 07:51:21;;;;;;;8.60;6.10;;;25.00;99.90;;;;;;6122392;23;20182;-69
2021/07/22 07:53:46;;;;;;;12.80;8.53;;;25.10;99.90;;;;;;6123762;23;20582;-68
2021/07/22 07:56:12;;;;;;;7.67;5.80;;;25.20;99.90;;;;;;6123969;23;20168;-66
2021/07/22 07:58:37;;;;;;;5.83;5.33;;;25.30;99.90;;;;;;6124166;23;20169;-66
2021/07/22 08:01:03;;;;;;;6.47;5.83;;;25.30;99.90;;;;;;6123490;23;20173;-66
2021/07/22 08:03:28;;;;;;;7.90;5.53;;;25.40;99.90;;;;;;6123999;23;20191;-66
2021/07/22 08:05:54;;;;;;;6.30;5.50;;;25.40;99.90;;;;;;6124621;23;20545;-68
2021/07/22 08:08:20;;;;;;;5.83;5.23;;;25.40;99.90;;;;;;6125485;23;20189;-66
2021/07/22 08:10:46;;;;;;;6.57;5.70;;;25.40;99.90;;;;;;6121508;23;20207;-66
2021/07/22 08:13:12;;;;;;;6.53;5.80;;;25.50;99.90;;;;;;6124723;23;20172;-69
2021/07/22 08:15:41;;;;;;;6.50;5.90;;;25.50;99.90;;;;;;6122738;23;20883;-69
2021/07/22 08:18:06;;;;;;;6.60;5.60;;;25.50;99.90;;;;;;6124622;23;20408;-66
2021/07/22 08:20:32;;;;;;;6.47;5.97;;;25.60;99.90;;;;;;6124203;23;20377;-66
2021/07/22 08:22:58;;;;;;;5.87;5.27;;;25.70;99.90;;;;;;6120979;23;20384;-66
2021/07/22 08:25:25;;;;;;;8.40;5.57;;;25.70;99.90;;;;;;6120679;23;20199;-66
2021/07/22 08:27:51;;;;;;;6.83;6.13;;;25.80;99.90;;;;;;6125141;23;20251;-66
2021/07/22 08:30:16;;;;;;;7.00;5.80;;;25.80;99.90;;;;;;6126190;23;20370;-67
2021/07/22 08:32:42;;;;;;;7.47;5.87;;;25.80;99.90;;;;;;6125490;23;20626;-66
2021/07/22 08:35:08;;;;;;;7.40;5.30;;;25.90;99.90;;;;;;6122380;23;20278;-69
2021/07/22 08:37:35;;;;;;;7.23;5.40;;;25.90;99.90;;;;;;6121978;23;20585;-67
2021/07/22 08:40:04;;;;;;;6.47;5.87;;;26.00;99.90;;;;;;6124622;23;20374;-69
2021/07/22 08:42:35;;;;;;;7.40;5.60;;;26.00;99.90;;;;;;6124315;23;20446;-69
2021/07/22 08:45:02;;;;;;;6.60;5.70;;;26.10;99.90;;;;;;6124176;23;20370;-66
2021/07/22 08:47:28;;;;;;;7.33;5.57;;;26.20;99.90;;;;;;6125599;23;20421;-66
2021/07/22 08:49:55;;;;;;;7.17;4.70;;;26.20;99.90;;;;;;6125935;23;20429;-69
2021/07/22 08:52:21;;;;;;;7.67;6.87;;;26.20;99.90;;;;;;6125785;23;20581;-66
2021/07/22 08:54:46;;;;;;;7.63;5.63;;;26.30;99.90;;;;;;6124586;23;20398;-69
2021/07/22 08:57:12;;;;;;;6.93;6.30;;;26.40;99.90;;;;;;6125377;23;20187;-66
2021/07/22 08:59:38;;;;;;;6.03;5.43;;;26.50;99.90;;;;;;6124526;23;20495;-69
2021/07/22 09:02:05;;;;;;;6.40;5.20;;;26.60;99.90;;;;;;6123918;23;20734;-66
2021/07/22 09:04:56;;;;;;;7.83;5.63;;;26.60;99.90;;;;;;6124116;23;20465;-66
2021/07/22 09:07:23;;;;;;;6.83;6.13;;;26.60;99.90;;;;;;6123498;23;20433;-69
2021/07/22 09:10:04;;;;;;;6.70;6.00;;;26.70;99.90;;;;;;6147162;23;20501;-67
2021/07/22 09:12:51;;;;;;;9.47;5.67;;;26.80;99.90;;;;;;6124734;23;20402;-67
2021/07/22 09:15:22;;;;;;;7.87;6.40;;;26.90;99.90;;;;;;6122060;23;20684;-69
2021/07/22 09:17:48;;;;;;;6.40;5.73;;;26.90;99.90;;;;;;6121603;23;20402;-69
2021/07/22 09:20:32;;;;;;;8.37;6.23;;;27.00;99.90;;;;;;6122686;23;20776;-66
2021/07/22 09:23:00;;;;;;;6.00;5.50;;;27.00;99.90;;;;;;6120684;23;20593;-66
2021/07/22 09:25:44;;;;;;;6.80;5.70;;;27.10;99.90;;;;;;6121546;23;20418;-69
2021/07/22 09:28:15;;;;;;;6.63;5.93;;;27.10;99.90;;;;;;6121024;23;20460;-68
2021/07/22 09:30:54;;;;;;;6.70;6.10;;;27.10;99.90;;;;;;6119717;23;20413;-66
2021/07/22 09:33:40;;;;;;;8.13;5.93;;;27.20;99.90;;;;;;6122797;23;20498;-69
2021/07/22 09:36:07;;;;;;;6.43;5.83;;;27.20;99.90;;;;;;6120980;23;20389;-66
2021/07/22 09:38:33;;;;;;;7.00;6.40;;;27.20;99.90;;;;;;6124160;23;20445;-68
2021/07/22 09:40:59;;;;;;;7.07;5.90;;;27.20;99.90;;;;;;6121943;23;20390;-65
2021/07/22 09:43:38;;;;;;;6.47;5.97;;;27.30;99.90;;;;;;6119374;23;20232;-67
2021/07/22 09:46:03;;;;;;;6.20;5.70;;;27.40;99.90;;;;;;6118445;23;20160;-68
2021/07/22 09:48:29;;;;;;;6.03;5.43;;;27.50;99.90;;;;;;6119561;23;20501;-66
2021/07/22 09:50:54;;;;;;;5.90;5.27;;;27.50;99.90;;;;;;6117356;23;20159;-70
2021/07/22 09:53:21;;;;;;;6.33;5.73;;;27.60;99.90;;;;;;6120301;23;20173;-66
2021/07/22 09:55:47;;;;;;;6.67;6.07;;;27.70;99.90;;;;;;6115765;23;20474;-68
2021/07/22 09:58:13;;;;;;;6.93;5.93;;;27.70;99.90;;;;;;6119529;23;20951;-69
2021/07/22 10:00:47;;;;;;;7.43;5.80;;;27.70;99.90;;;;;;6118215;23;20390;-65
2021/07/22 10:03:14;;;;;;;6.50;5.90;;;27.60;99.90;;;;;;6119370;23;20959;-64
2021/07/22 10:05:45;;;;;;;6.87;6.07;;;27.60;99.90;;;;;;6119006;23;20397;-67
2021/07/22 10:08:17;;;;;;;6.53;5.87;;;27.60;99.90;;;;;;6120378;23;20412;-68
2021/07/22 10:10:45;;;;;;;6.97;5.70;;;27.60;99.90;;;;;;6117018;23;20375;-69
2021/07/22 10:13:10;;;;;;;7.23;6.40;;;27.60;99.90;;;;;;6117312;23;20643;-66
2021/07/22 10:15:37;;;;;;;9.40;5.57;;;27.60;99.90;;;;;;6118469;23;20556;-67
2021/07/22 10:18:06;;;;;;;6.57;5.93;;;27.60;99.90;;;;;;6118237;23;20608;-69
2021/07/22 10:20:34;;;;;;;7.63;6.87;;;27.70;99.90;;;;;;6116555;23;20383;-69
2021/07/22 10:23:00;;;;;;;7.60;6.80;;;27.70;99.90;;;;;;6116165;23;20434;-66
2021/07/22 10:25:26;;;;;;;6.53;5.90;;;27.70;99.90;;;;;;6112051;23;21119;-66
2021/07/22 10:27:57;;;;;;;7.87;5.87;;;27.70;99.90;;;;;;6116899;23;20876;-66
2021/07/22 10:30:24;;;;;;;6.97;6.33;;;27.70;99.90;;;;;;6121809;23;20380;-69
2021/07/22 10:32:53;;;;;;;6.70;6.00;;;27.70;99.90;;;;;;6122376;23;20907;-69
2021/07/22 10:35:26;;;;;;;6.73;6.03;;;27.80;99.90;;;;;;6121150;23;20442;-66
2021/07/22 10:38:11;;;;;;;6.93;6.33;;;27.80;99.90;;;;;;6120277;23;20455;-69
2021/07/22 10:40:47;;;;;;;6.80;6.17;;;27.90;99.90;;;;;;6122090;23;20383;-66
2021/07/22 10:43:40;;;;;;;8.50;6.40;;;27.90;99.90;;;;;;6123482;23;20450;-69
2021/07/22 10:46:07;;;;;;;7.37;6.70;;;28.00;99.90;;;;;;6122186;23;20399;-68
2021/07/22 10:48:33;;;;;;;6.37;5.17;;;28.10;99.90;;;;;;6122483;23;20374;-66
2021/07/22 10:51:00;;;;;;;7.10;6.40;;;28.10;99.90;;;;;;6120604;23;20927;-66
2021/07/22 10:53:44;;;;;;;7.03;5.60;;;28.10;99.90;;;;;;6117557;23;20172;-66
2021/07/22 10:56:15;;;;;;;7.50;5.83;;;28.10;99.90;;;;;;6120500;23;20386;-66
2021/07/22 10:58:41;;;;;;;7.57;6.80;;;28.20;99.90;;;;;;6120775;23;20480;-66
2021/07/22 11:01:07;;;;;;;8.37;7.57;;;28.20;99.90;;;;;;6119532;23;20406;-69
2021/07/22 11:03:33;;;;;;;6.50;5.87;;;28.20;99.90;;;;;;6119505;23;20196;-69
2021/07/22 11:06:06;;;;;;;7.27;5.33;;;28.20;99.90;;;;;;6120740;23;20396;-66
2021/07/22 11:08:36;;;;;;;7.20;6.50;;;28.10;99.90;;;;;;6113190;23;20329;-69
2021/07/22 11:11:04;;;;;;;7.00;6.10;;;28.10;99.90;;;;;;6121062;23;20457;-69
2021/07/22 11:13:40;;;;;;;5.97;5.30;;;28.10;99.90;;;;;;6120130;23;20699;-70
2021/07/22 11:16:28;;;;;;;6.07;5.47;;;28.10;99.90;;;;;;6119180;23;20371;-66
2021/07/22 11:19:01;;;;;;;6.37;5.83;;;28.10;99.90;;;;;;6118641;23;20363;-69
2021/07/22 11:21:34;;;;;;;7.17;5.50;;;28.20;99.90;;;;;;6119630;23;20430;-69
2021/07/22 11:24:16;;;;;;;6.40;5.57;;;28.20;99.90;;;;;;6114760;23;20440;-66
2021/07/22 11:26:43;;;;;;;6.50;5.90;;;28.30;99.90;;;;;;6110518;23;20778;-69
2021/07/22 11:29:10;;;;;;;7.87;6.23;;;28.20;99.90;;;;;;6117208;23;20860;-69
2021/07/22 11:31:47;;;;;;;6.70;5.17;;;28.30;99.90;;;;;;6115175;23;20502;-70
2021/07/22 11:34:14;;;;;;;7.10;6.40;;;28.30;99.90;;;;;;6114912;23;20951;-66
2021/07/22 11:36:39;;;;;;;6.60;6.00;;;28.30;99.90;;;;;;6137810;23;20848;-70
2021/07/22 11:39:06;;;;;;;6.47;5.60;;;28.20;99.90;;;;;;6115790;23;20402;-66
2021/07/22 11:41:32;;;;;;;6.27;5.67;;;28.10;99.90;;;;;;6116676;23;20525;-66
2021/07/22 11:44:03;;;;;;;6.20;5.60;;;28.20;99.90;;;;;;6121891;23;20559;-70
2021/07/22 11:46:44;;;;;;;7.07;6.30;;;28.20;99.90;;;;;;6115703;23;20190;-66
2021/07/22 11:49:12;;;;;;;7.10;5.77;;;28.30;99.90;;;;;;6119603;23;20387;-66
2021/07/22 11:51:41;;;;;;;6.50;6.00;;;28.30;99.90;;;;;;6119602;23;20432;-66
2021/07/22 11:54:06;;;;;;;6.60;5.67;;;28.30;99.90;;;;;;6117906;23;20380;-66
2021/07/22 11:56:34;;;;;;;7.43;5.57;;;28.20;99.90;;;;;;6119436;23;20473;-69
2021/07/22 11:59:04;;;;;;;6.50;5.87;;;28.20;99.90;;;;;;6119717;23;20486;-66
2021/07/22 12:01:31;;;;;;;6.40;5.60;;;28.10;99.90;;;;;;6119841;23;20404;-66
2021/07/22 12:03:57;;;;;;;7.33;6.63;;;28.10;99.90;;;;;;6121449;23;20443;-69
2021/07/22 12:06:24;;;;;;;6.37;5.77;;;28.10;99.90;;;;;;6120268;23;20416;-66
2021/07/22 12:09:06;;;;;;;6.20;5.60;;;28.00;99.90;;;;;;6119245;23;20637;-66
2021/07/22 12:11:46;;;;;;;6.57;5.80;;;28.00;99.90;;;;;;6117259;23;20428;-70
2021/07/22 12:14:12;;;;;;;6.80;6.00;;;28.00;99.90;;;;;;6118122;23;20387;-67
2021/07/22 12:16:38;;;;;;;8.63;5.70;;;28.00;99.90;;;;;;6118690;23;20971;-69
2021/07/22 12:19:03;;;;;;;6.27;5.67;;;28.00;99.90;;;;;;6118425;23;20376;-66
2021/07/22 12:21:30;;;;;;;6.40;5.77;;;28.10;99.90;;;;;;6118318;23;20180;-66
2021/07/22 12:24:15;;;;;;;7.67;6.10;;;28.10;99.90;;;;;;6117528;23;20722;-67
2021/07/22 12:26:41;;;;;;;6.43;5.83;;;28.20;99.90;;;;;;6120332;23;20419;-70
2021/07/22 12:29:07;;;;;;;11.13;5.40;;;28.20;99.90;;;;;;6144890;23;20882;-66
2021/07/22 12:31:40;;;;;;;7.80;5.90;;;28.20;99.90;;;;;;6117417;23;20194;-70
2021/07/22 12:34:07;;;;;;;5.83;5.33;;;28.20;99.90;;;;;;6119102;23;20192;-65
2021/07/22 12:36:34;;;;;;;6.67;5.90;;;28.10;99.90;;;;;;6118061;23;20431;-69
2021/07/22 12:39:14;;;;;;;7.77;6.77;;;28.20;99.90;;;;;;6118905;23;20950;-69
2021/07/22 12:41:41;;;;;;;6.83;6.23;;;28.20;99.90;;;;;;6120634;23;20467;-69
2021/07/22 12:44:07;;;;;;;6.93;6.23;;;28.20;99.90;;;;;;6119914;23;20770;-69